Averill, Vermont
Current Conditions -  °F | °C
As of 3:35 AM on Saturday 22 Nov 2014 (Local Time) from KEFK Reporting Station
Clear Clear  
Wind Chill:   Ceiling: Unl
Heat Index: 18°   Visibility: 10mi
Dew Point:   Wind: 6mph
Humidity: 67%   Direction: 190°S
Pressure: 30.26"   Gusts: NA
Location:  45°N, 71.71°W
Report Text: KEFK 220835Z AUTO 19005KT 10SM CLR M08/M13 A3026 RMK AO2 T10801131
Loading
Personal Weather Stations






























Interactive Weather Map New forecast layout! Learn more

10-Day Weather Forecast

Advertisements
Track Severe Weather on mobile